Time;durP1;ratioP1;P1;durP2;ratioP2;P2;SDS_P1;SDS_P2;PMS_P1;PMS_P2;Temp;Humidity;BMP_temperature;BMP_pressure;BME280_temperature;BME280_humidity;BME280_pressure;Samples;Min_cycle;Max_cycle;Signal;HPM_P1;HPM_P2
2022/11/02 15:36:22;;;;;;;;;;;;;;;;;;6266324;22;19925;-77
2022/11/02 15:39:14;;;;;;;;;;;;;;;;;;5020515;27;1954357;-78
2022/11/02 15:41:40;;;;;;;;;;;;;;;;;;5101455;27;19965;-79
2022/11/02 15:44:06;;;;;;;;;;;;;;;;;;5076364;28;20027;-79
2022/11/02 15:46:33;;;;;;;;;;;;;;;;;;5091056;28;19998;-79
2022/11/02 15:48:59;;;;;;;;;;;;;;;;;;5087261;28;20010;-78
2022/11/02 15:51:25;;;;;;;;;;;;;;;;;;5075852;28;19947;-78
2022/11/02 15:53:51;;;;;;;;;;;;;;;;;;5080486;28;19947;-77
2022/11/02 15:56:17;;;;;;;;;;;;;;;;;;5080282;28;19955;-78
2022/11/02 15:58:44;;;;;;;;;;;;;;;;;;5096879;28;19978;-78
2022/11/02 16:01:10;;;;;;;;;;;;;;;;;;5067485;28;19950;-78
2022/11/02 16:03:36;;;;;;;;;;;;;;;;;;5096962;28;20021;-76
2022/11/02 16:06:02;;;;;;;;;;;;;;;;;;5080115;27;19978;-78
2022/11/02 16:08:38;;;;;;;;;;;;;;;;;;5067783;28;19958;-78
2022/11/02 16:11:04;;;;;;;;;;;;;;;;;;5077622;28;19973;-78
2022/11/02 16:13:30;;;;;;;;;;;;;;;;;;5078110;28;19964;-78
2022/11/02 16:15:56;;;;;;;;;;;;;;;;;;5094681;28;19948;-78
2022/11/02 16:18:22;;;;;;;;;;;;;;;;;;5070008;28;19956;-78
2022/11/02 16:20:49;;;;;;;;;;;;;;;;;;5078817;28;20790;-78
2022/11/02 16:23:15;;;;;;;;;;;;;;;;;;5097319;27;20057;-78
2022/11/02 16:25:41;;;;;;;;;;;;;;;;;;5072590;28;21713;-78
2022/11/02 16:28:07;;;;;;;;;;;;;;;;;;5095369;27;19955;-79
2022/11/02 16:30:33;;;;;;;;;;;;;;;;;;5077044;28;19958;-79
2022/11/02 16:33:00;;;;;;;;;;;;;;;;;;5097755;28;19916;-78
2022/11/02 16:35:44;;;;;;;;;;;;;;;;;;5095685;28;19923;-78
2022/11/02 16:38:10;;;;;;;;;;;;;;;;;;5079331;28;20445;-78
2022/11/02 16:40:55;;;;;;;;;;;;;;;;;;5076124;28;20201;-78
2022/11/02 16:43:21;;;;;;;;;;;;;;;;;;5079264;28;20354;-79
2022/11/02 16:45:47;;;;;;;;;;;;;;;;;;5060962;28;19948;-79
2022/11/02 16:48:14;;;;;;;;;;;;;;;;;;5068250;28;20401;-80
2022/11/02 16:50:40;;;;;;;;;;;;;;;;;;5051357;28;19952;-78
2022/11/02 16:53:06;;;;;;;;;;;;;;;;;;5055479;28;20399;-78
2022/11/02 16:55:32;;;;;;;;;;;;;;;;;;5059291;28;19979;-77
2022/11/02 16:57:58;;;;;;;;;;;;;;;;;;5061524;28;19963;-78
2022/11/02 17:00:25;;;;;;;;;;;;;;;;;;5064099;28;19955;-78
2022/11/02 17:02:51;;;;;;;;;;;;;;;;;;5048810;28;19981;-79
2022/11/02 17:05:17;;;;;;;;;;;;;;;;;;5055215;28;19959;-78
2022/11/02 17:07:43;;;;;;;;;;;;;;;;;;5040847;28;19960;-76
2022/11/02 17:10:09;;;;;;;;;;;;;;;;;;5064373;28;20225;-78
2022/11/02 17:12:35;;;;;;;;;;;;;;;;;;5060776;28;19948;-76
2022/11/02 17:15:02;;;;;;;;;;;;;;;;;;5059737;28;20007;-77
2022/11/02 17:17:28;;;;;;;;;;;;;;;;;;5060687;28;20020;-77
2022/11/02 17:19:55;;;;;;;;;;;;;;;;;;5064782;28;19955;-76
2022/11/02 17:22:21;;;;;;;;;;;;;;;;;;5050782;28;19964;-77
2022/11/02 17:24:48;;;;;;;;;;;;;;;;;;5053261;28;20267;-75
2022/11/02 17:27:14;;;;;;;;;;;;;;;;;;5068687;28;20545;-76
2022/11/02 17:29:43;;;;;;;;;;;;;;;;;;5047685;28;19960;-76
2022/11/02 17:32:15;;;;;;;;;;;;;;;;;;5041219;28;19949;-75
2022/11/02 17:34:45;;;;;;;;;;;;;;;;;;5061170;28;19966;-76
2022/11/02 17:37:29;;;;;;;;;;;;;;;;;;5060441;28;19964;-76
2022/11/02 17:39:55;;;;;;;;;;;;;;;;;;5027511;28;19964;-77
2022/11/02 17:45:15;;;;;;;;;;;;;;;;;;5061374;28;19917;-76
2022/11/02 17:47:51;;;;;;;;;;;;;;;;;;5022999;28;19924;-77
2022/11/02 17:50:18;;;;;;;;;;;;;;;;;;5045163;28;19955;-76
2022/11/02 17:52:46;;;;;;;;;;;;;;;;;;5061431;28;19956;-77
2022/11/02 17:55:15;;;;;;;;;;;;;;;;;;5055829;28;19952;-76
2022/11/02 18:00:56;;;;;;;;;;;;;;;;;;5041834;28;21510;-77
2022/11/02 18:03:32;;;;;;;;;;;;;;;;;;5025685;28;19948;-75
2022/11/02 18:06:31;;;;;;;;;;;;;;;;;;5018833;28;20375;-78
2022/11/02 18:09:17;;;;;;;;;;;;;;;;;;5062565;28;19952;-77
2022/11/02 18:14:49;;;;;;;;;;;;;;;;;;5057138;28;19931;-77
2022/11/02 18:17:15;;;;;;;;;;;;;;;;;;5060236;28;19959;-77
2022/11/02 18:19:41;;;;;;;;;;;;;;;;;;5053998;28;20427;-76
2022/11/02 18:22:08;;;;;;;;;;;;;;;;;;5043382;28;19952;-76
2022/11/02 18:24:34;;;;;;;;;;;;;;;;;;5060646;28;20437;-79
2022/11/02 18:27:00;;;;;;;;;;;;;;;;;;5062700;28;19958;-75
2022/11/02 18:29:26;;;;;;;;;;;;;;;;;;5045259;28;19951;-76
2022/11/02 18:31:53;;;;;;;;;;;;;;;;;;5054111;28;19948;-76
2022/11/02 18:34:20;;;;;;;;;;;;;;;;;;5060351;28;19947;-80
2022/11/02 18:36:46;;;;;;;;;;;;;;;;;;5047684;28;19948;-77
2022/11/02 18:39:12;;;;;;;;;;;;;;;;;;5061280;28;19986;-78
2022/11/02 18:41:41;;;;;;;;;;;;;;;;;;5056465;28;20872;-77
2022/11/02 18:44:08;;;;;;;;;;;;;;;;;;5065222;28;20379;-78
2022/11/02 18:46:34;;;;;;;;;;;;;;;;;;5034476;28;20450;-78
2022/11/02 18:49:00;;;;;;;;;;;;;;;;;;5057533;28;19963;-78
2022/11/02 18:51:26;;;;;;;;;;;;;;;;;;5059304;28;19958;-78
2022/11/02 18:53:53;;;;;;;;;;;;;;;;;;5063701;28;19967;-78
2022/11/02 18:56:20;;;;;;;;;;;;;;;;;;5067388;28;19959;-78
2022/11/02 18:58:46;;;;;;;;;;;;;;;;;;5062250;28;20637;-78
2022/11/02 19:01:12;;;;;;;;;;;;;;;;;;5063493;28;19967;-84
2022/11/02 19:03:39;;;;;;;;;;;;;;;;;;5047013;28;21411;-84
2022/11/02 19:11:35;;;;;;;;;;;;;;;;;;5060794;28;19955;-83
2022/11/02 19:14:01;;;;;;;;;;;;;;;;;;5079763;28;19948;-85
2022/11/02 19:16:27;;;;;;;;;;;;;;;;;;5060324;28;19920;-84
2022/11/02 19:18:54;;;;;;;;;;;;;;;;;;5047316;28;19975;-84
2022/11/02 19:21:20;;;;;;;;;;;;;;;;;;5035353;28;19962;-83
2022/11/02 19:23:46;;;;;;;;;;;;;;;;;;5060066;28;20332;-84
2022/11/02 19:26:13;;;;;;;;;;;;;;;;;;5063831;28;19987;-84
2022/11/02 19:28:39;;;;;;;;;;;;;;;;;;5046375;28;20996;-84
2022/11/02 19:31:07;;;;;;;;;;;;;;;;;;5051199;28;19955;-84
2022/11/02 19:33:33;;;;;;;;;;;;;;;;;;5062458;28;20369;-85
2022/11/02 19:35:59;;;;;;;;;;;;;;;;;;5046096;28;19978;-83
2022/11/02 19:38:25;;;;;;;;;;;;;;;;;;5081676;28;19974;-84
2022/11/02 19:40:52;;;;;;;;;;;;;;;;;;5063077;28;19940;-84
2022/11/02 19:43:18;;;;;;;;;;;;;;;;;;5066816;28;19944;-84
2022/11/02 19:45:44;;;;;;;;;;;;;;;;;;5047775;28;19955;-84
2022/11/02 19:48:10;;;;;;;;;;;;;;;;;;5066203;28;19960;-84
2022/11/02 19:50:36;;;;;;;;;;;;;;;;;;5035902;28;20025;-81
2022/11/02 19:53:02;;;;;;;;;;;;;;;;;;5044441;28;19952;-83
2022/11/02 19:55:29;;;;;;;;;;;;;;;;;;5081767;28;20001;-83
2022/11/02 19:57:55;;;;;;;;;;;;;;;;;;5083468;28;19959;-83
2022/11/02 20:00:21;;;;;;;;;;;;;;;;;;5044048;28;19967;-83
2022/11/02 20:02:47;;;;;;;;;;;;;;;;;;5048754;28;19954;-83
2022/11/02 20:05:13;;;;;;;;;;;;;;;;;;5063560;28;19951;-83
2022/11/02 20:07:40;;;;;;;;;;;;;;;;;;5063328;28;19958;-83
2022/11/02 20:10:06;;;;;;;;;;;;;;;;;;5063562;28;19974;-85
2022/11/02 20:12:35;;;;;;;;;;;;;;;;;;5021431;28;20382;-82
2022/11/02 20:15:14;;;;;;;;;;;;;;;;;;5027864;28;19920;-82
2022/11/02 20:17:41;;;;;;;;;;;;;;;;;;5037784;28;19927;-81
2022/11/02 20:20:10;;;;;;;;;;;;;;;;;;5060829;28;19931;-82
2022/11/02 20:22:37;;;;;;;;;;;;;;;;;;5017480;28;22306;-81
2022/11/02 20:25:04;;;;;;;;;;;;;;;;;;5067636;28;19920;-81
2022/11/02 20:27:32;;;;;;;;;;;;;;;;;;5044531;28;19920;-81
2022/11/02 20:29:58;;;;;;;;;;;;;;;;;;5037984;28;19912;-81
2022/11/02 20:32:25;;;;;;;;;;;;;;;;;;5025590;28;19963;-82
2022/11/02 20:34:51;;;;;;;;;;;;;;;;;;5045102;28;19924;-81
2022/11/02 20:37:17;;;;;;;;;;;;;;;;;;5064938;28;20351;-81
2022/11/02 20:39:43;;;;;;;;;;;;;;;;;;5048125;28;19986;-82
2022/11/02 20:42:10;;;;;;;;;;;;;;;;;;5083964;28;19998;-82
2022/11/02 20:44:36;;;;;;;;;;;;;;;;;;5064177;28;21698;-82
2022/11/02 20:47:02;;;;;;;;;;;;;;;;;;5032881;28;19952;-82
2022/11/02 20:49:28;;;;;;;;;;;;;;;;;;5069295;28;19916;-81
2022/11/02 20:51:54;;;;;;;;;;;;;;;;;;5023601;28;19919;-81
2022/11/02 20:54:21;;;;;;;;;;;;;;;;;;5067240;28;19916;-80
2022/11/02 20:56:47;;;;;;;;;;;;;;;;;;5047096;28;19963;-83
2022/11/02 20:59:13;;;;;;;;;;;;;;;;;;5064247;28;19978;-81
2022/11/02 21:01:39;;;;;;;;;;;;;;;;;;5081878;28;19973;-82
2022/11/02 21:04:06;;;;;;;;;;;;;;;;;;5066475;28;19963;-83
2022/11/02 21:06:32;;;;;;;;;;;;;;;;;;5062308;28;19966;-84
2022/11/02 21:08:59;;;;;;;;;;;;;;;;;;5049895;28;19955;-84
2022/11/02 21:14:10;;;;;;;;;;;;;;;;;;5080433;28;20065;-85
2022/11/02 21:16:36;;;;;;;;;;;;;;;;;;5065446;28;19959;-85
2022/11/02 21:19:02;;;;;;;;;;;;;;;;;;5047423;28;20017;-83
2022/11/02 21:21:28;;;;;;;;;;;;;;;;;;5065754;28;19954;-82
2022/11/02 21:23:54;;;;;;;;;;;;;;;;;;5048772;28;19923;-83
2022/11/02 21:26:21;;;;;;;;;;;;;;;;;;5061327;28;19948;-82
2022/11/02 21:28:47;;;;;;;;;;;;;;;;;;5050585;28;19920;-85
2022/11/02 21:31:18;;;;;;;;;;;;;;;;;;5050907;28;19923;-80
2022/11/02 21:33:44;;;;;;;;;;;;;;;;;;5062640;28;20848;-81
2022/11/02 21:36:10;;;;;;;;;;;;;;;;;;5069504;28;19966;-81
2022/11/02 21:38:37;;;;;;;;;;;;;;;;;;5043023;28;20574;-80
2022/11/02 21:41:03;;;;;;;;;;;;;;;;;;5034846;28;19916;-80
2022/11/02 21:43:29;;;;;;;;;;;;;;;;;;5058424;28;19956;-80
2022/11/02 21:45:55;;;;;;;;;;;;;;;;;;5068516;28;19955;-81
2022/11/02 21:48:22;;;;;;;;;;;;;;;;;;5047354;28;20387;-80
2022/11/02 21:50:48;;;;;;;;;;;;;;;;;;5070145;28;19955;-79
2022/11/02 21:53:14;;;;;;;;;;;;;;;;;;5080686;28;19981;-80
2022/11/02 21:55:40;;;;;;;;;;;;;;;;;;5065223;28;20177;-79
2022/11/02 21:58:06;;;;;;;;;;;;;;;;;;5082610;28;19967;-81
2022/11/02 22:03:18;;;;;;;;;;;;;;;;;;5084039;28;19959;-80
2022/11/02 22:05:58;;;;;;;;;;;;;;;;;;5052783;28;19947;-81
2022/11/02 22:08:39;;;;;;;;;;;;;;;;;;5056047;28;20057;-80
2022/11/02 22:11:06;;;;;;;;;;;;;;;;;;5054258;28;19962;-80
2022/11/02 22:13:32;;;;;;;;;;;;;;;;;;5072402;28;20417;-80
2022/11/02 22:15:58;;;;;;;;;;;;;;;;;;5065242;28;19955;-80
2022/11/02 22:18:24;;;;;;;;;;;;;;;;;;5051815;28;20355;-80
2022/11/02 22:20:50;;;;;;;;;;;;;;;;;;5043079;28;19929;-81
2022/11/02 22:23:17;;;;;;;;;;;;;;;;;;5039718;28;20391;-81
2022/11/02 22:25:43;;;;;;;;;;;;;;;;;;5045435;28;20061;-82
2022/11/02 22:28:09;;;;;;;;;;;;;;;;;;5048930;28;19985;-82
2022/11/02 22:30:35;;;;;;;;;;;;;;;;;;5070984;28;20037;-82
2022/11/02 22:33:01;;;;;;;;;;;;;;;;;;5049364;28;19975;-81
2022/11/02 22:35:28;;;;;;;;;;;;;;;;;;5049617;28;20348;-81
2022/11/02 22:40:39;;;;;;;;;;;;;;;;;;5065202;28;20551;-82
2022/11/02 22:43:05;;;;;;;;;;;;;;;;;;5048061;28;20691;-82
2022/11/02 22:45:31;;;;;;;;;;;;;;;;;;5035512;28;19924;-80
2022/11/02 22:47:58;;;;;;;;;;;;;;;;;;5049717;28;20045;-80
2022/11/02 22:50:24;;;;;;;;;;;;;;;;;;5065926;28;19919;-79
2022/11/02 22:52:50;;;;;;;;;;;;;;;;;;5051673;28;19916;-80
2022/11/02 22:55:16;;;;;;;;;;;;;;;;;;5040418;28;19935;-80
2022/11/02 22:57:42;;;;;;;;;;;;;;;;;;5066652;28;19969;-80
2022/11/02 23:00:09;;;;;;;;;;;;;;;;;;5066973;28;19924;-81
2022/11/02 23:02:35;;;;;;;;;;;;;;;;;;5049831;28;19916;-80
2022/11/02 23:05:01;;;;;;;;;;;;;;;;;;5051099;28;19971;-80
2022/11/02 23:07:27;;;;;;;;;;;;;;;;;;5084827;28;20335;-79
2022/11/02 23:09:53;;;;;;;;;;;;;;;;;;5064720;28;19954;-80
2022/11/02 23:12:20;;;;;;;;;;;;;;;;;;5050806;28;19912;-79
2022/11/02 23:14:46;;;;;;;;;;;;;;;;;;5051057;28;20319;-80
2022/11/02 23:17:12;;;;;;;;;;;;;;;;;;5065409;28;19943;-79
2022/11/02 23:19:38;;;;;;;;;;;;;;;;;;5061443;28;19936;-80
2022/11/02 23:32:24;;;;;;;;;;;;;;;;;;5083362;28;19962;-79
2022/11/02 23:33:06;;;;;;;;;;;;;;;;;;5063110;28;19939;-80
2022/11/02 23:38:17;;;;;;;;;;;;;;;;;;5078512;28;19955;-79
2022/11/02 23:40:43;;;;;;;;;;;;;;;;;;5061054;28;19981;-80
2022/11/02 23:43:09;;;;;;;;;;;;;;;;;;5057685;28;19963;-80
2022/11/02 23:45:35;;;;;;;;;;;;;;;;;;5061831;28;19916;-80
2022/11/02 23:48:01;;;;;;;;;;;;;;;;;;5084052;28;20041;-80
2022/11/02 23:58:45;;;;;;;;;;;;;;;;;;5065975;28;19924;-81
